Time;durP1;ratioP1;P1;durP2;ratioP2;P2;SDS_P1;SDS_P2;PMS_P1;PMS_P2;Temp;Humidity;BMP_temperature;BMP_pressure;BME280_temperature;BME280_humidity;BME280_pressure;Samples;Min_cycle;Max_cycle;Signal;HPM_P1;HPM_P2
2021/08/26 00:07:53;;;;;;;3.90;2.13;;;;;;;14.19;95.40;100236.50;5048927;28;20596;-77
2021/08/26 00:10:22;;;;;;;5.33;2.17;;;;;;;14.17;95.59;100233.09;5048559;28;20231;-78
2021/08/26 00:12:49;;;;;;;4.87;2.30;;;;;;;14.19;95.42;100232.13;5047741;28;20213;-77
2021/08/26 00:15:15;;;;;;;4.10;1.90;;;;;;;14.19;95.19;100239.13;5048230;28;20238;-77
2021/08/26 00:17:42;;;;;;;5.30;2.30;;;;;;;14.16;95.64;100218.28;5048823;28;20213;-77
2021/08/26 00:20:10;;;;;;;3.17;2.10;;;;;;;14.17;96.14;100210.34;5048768;28;20229;-79
2021/08/26 00:22:36;;;;;;;3.90;2.60;;;;;;;14.18;96.14;100206.78;5047307;28;20211;-78
2021/08/26 00:25:04;;;;;;;6.07;2.57;;;;;;;14.25;95.92;100204.78;5048300;28;20225;-77
2021/08/26 00:27:31;;;;;;;4.60;2.37;;;;;;;14.16;96.25;100206.00;5048530;28;20551;-76
2021/08/26 00:29:57;;;;;;;7.43;2.70;;;;;;;14.19;96.73;100184.00;5048473;28;20282;-78
2021/08/26 00:32:23;;;;;;;5.17;3.07;;;;;;;14.10;96.96;100178.19;5048342;28;20213;-77
2021/08/26 00:34:50;;;;;;;4.27;2.23;;;;;;;14.21;96.79;100166.44;5047958;28;20201;-78
2021/08/26 00:37:17;;;;;;;6.23;2.53;;;;;;;14.17;96.65;100177.97;5049091;28;20749;-78
2021/08/26 00:39:44;;;;;;;4.67;2.60;;;;;;;14.20;95.97;100194.47;5048341;28;20709;-78
2021/08/26 00:42:10;;;;;;;4.70;2.40;;;;;;;14.15;96.21;100185.03;5048282;28;20585;-77
2021/08/26 00:44:38;;;;;;;5.97;3.30;;;;;;;14.15;96.58;100174.53;5048441;28;20251;-78
2021/08/26 00:47:05;;;;;;;7.27;2.80;;;;;;;14.15;96.02;100187.66;5047637;28;20267;-78
2021/08/26 00:49:31;;;;;;;4.70;2.63;;;;;;;14.14;96.24;100189.44;5047546;28;20429;-78
2021/08/26 00:51:59;;;;;;;6.53;3.60;;;;;;;14.12;96.35;100174.69;5046918;28;20209;-77
2021/08/26 00:54:26;;;;;;;7.23;3.53;;;;;;;14.16;96.40;100176.25;5048108;28;20236;-78
2021/08/26 00:56:54;;;;;;;4.67;2.70;;;;;;;14.17;96.11;100170.97;5048399;28;20207;-78
2021/08/26 00:59:20;;;;;;;3.87;3.13;;;;;;;14.23;96.21;100167.22;5048319;28;20639;-77
2021/08/26 01:01:53;;;;;;;7.20;3.27;;;;;;;14.09;96.51;100166.00;5047625;28;20212;-78
2021/08/26 01:04:28;;;;;;;4.40;2.47;;;;;;;14.15;96.47;100164.88;5047900;28;20213;-77
2021/08/26 01:07:01;;;;;;;5.87;3.07;;;;;;;14.13;96.54;100152.75;5047389;28;20201;-79
2021/08/26 01:09:33;;;;;;;9.03;3.00;;;;;;;14.12;96.26;100149.28;5046952;28;20213;-77
2021/08/26 01:12:02;;;;;;;8.03;3.80;;;;;;;14.07;96.58;100148.59;5046790;28;20203;-77
2021/08/26 01:14:28;;;;;;;6.23;3.67;;;;;;;14.06;96.47;100152.13;5046195;28;20505;-77
2021/08/26 01:16:54;;;;;;;6.20;3.60;;;;;;;14.07;96.10;100167.84;5046479;28;21017;-78
2021/08/26 01:19:21;;;;;;;5.33;3.00;;;;;;;14.14;95.97;100189.44;5047651;28;20212;-77
2021/08/26 01:21:47;;;;;;;5.63;3.10;;;;;;;14.18;95.96;100183.16;5047525;28;20228;-78
2021/08/26 01:24:17;;;;;;;5.53;3.30;;;;;;;14.14;95.77;100176.31;5046886;28;20241;-78
2021/08/26 01:26:49;;;;;;;3.67;3.37;;;;;;;14.15;96.33;100157.00;5048581;28;20527;-78
2021/08/26 01:29:16;;;;;;;7.77;3.80;;;;;;;14.10;96.89;100143.22;5048531;28;20280;-77
2021/08/26 01:31:43;;;;;;;6.20;3.07;;;;;;;14.05;97.32;100119.78;5047292;28;20233;-79
2021/08/26 01:34:10;;;;;;;4.87;3.03;;;;;;;14.06;97.07;100116.25;5046548;28;20742;-78
2021/08/26 01:36:37;;;;;;;8.37;3.60;;;;;;;14.07;97.18;100120.59;5046329;28;20249;-78
2021/08/26 01:39:06;;;;;;;7.13;3.30;;;;;;;13.98;97.20;100110.44;5046660;28;20263;-77
2021/08/26 01:41:38;;;;;;;5.97;3.17;;;;;;;13.96;97.32;100106.16;5047010;28;20240;-77
2021/08/26 01:44:06;;;;;;;5.97;3.50;;;;;;;14.03;96.72;100118.13;5045816;28;20232;-78
2021/08/26 01:46:32;;;;;;;9.07;3.97;;;;;;;14.06;95.88;100146.88;5046398;28;20677;-78
2021/08/26 01:48:59;;;;;;;9.90;3.13;;;;;;;14.15;94.69;100193.75;5046849;28;20263;-79
2021/08/26 01:51:25;;;;;;;9.03;2.80;;;;;;;14.05;94.60;100197.66;5046052;28;20224;-77
2021/08/26 01:53:51;;;;;;;6.03;3.23;;;;;;;14.09;94.11;100201.88;5045663;28;20646;-78
2021/08/26 01:56:18;;;;;;;4.87;2.97;;;;;;;14.12;93.71;100220.16;5045889;28;20227;-77
2021/08/26 01:58:44;;;;;;;7.53;3.40;;;;;;;14.12;93.85;100221.91;5045589;28;20202;-79
2021/08/26 02:01:12;;;;;;;8.13;3.13;;;;;;;14.05;93.72;100223.91;5045742;28;20731;-78
2021/08/26 02:03:38;;;;;;;9.43;3.60;;;;;;;14.04;94.08;100212.56;5046057;28;20269;-78
2021/08/26 02:06:05;;;;;;;11.23;3.50;;;;;;;14.07;93.94;100211.56;5045086;28;20229;-78
2021/08/26 02:08:31;;;;;;;11.00;3.47;;;;;;;14.02;94.42;100192.53;5045347;28;20201;-77
2021/08/26 02:10:57;;;;;;;7.70;3.10;;;;;;;13.95;95.20;100173.50;5046064;28;20266;-78
2021/08/26 02:13:24;;;;;;;9.33;3.10;;;;;;;13.93;95.21;100156.97;5044596;28;20636;-79
2021/08/26 02:15:50;;;;;;;7.37;3.50;;;;;;;13.90;95.39;100146.59;5044967;28;20262;-77
2021/08/26 02:18:18;;;;;;;6.80;3.80;;;;;;;13.94;95.42;100149.97;5045599;28;20236;-79
2021/08/26 02:20:44;;;;;;;7.50;4.03;;;;;;;13.95;95.61;100143.81;5046002;28;20294;-78
2021/08/26 02:23:10;;;;;;;6.73;3.40;;;;;;;14.04;95.15;100146.09;5044439;28;20274;-78
2021/08/26 02:25:37;;;;;;;10.83;4.07;;;;;;;14.08;94.96;100168.69;5045044;28;20229;-78
2021/08/26 02:28:03;;;;;;;13.07;3.37;;;;;;;14.12;94.47;100177.31;5046135;28;20213;-77
2021/08/26 02:30:30;;;;;;;9.60;3.10;;;;;;;14.07;94.65;100173.09;5046521;28;20232;-77
2021/08/26 02:32:56;;;;;;;9.40;4.10;;;;;;;13.99;94.98;100162.00;5045983;28;20278;-78
2021/08/26 02:35:24;;;;;;;9.07;3.40;;;;;;;13.87;95.02;100149.34;5045637;28;20213;-77
2021/08/26 02:37:50;;;;;;;11.70;3.80;;;;;;;13.92;95.58;100139.53;5044671;28;20224;-79
2021/08/26 02:40:17;;;;;;;9.80;4.37;;;;;;;13.87;95.49;100129.22;5045015;28;20301;-78
2021/08/26 02:42:43;;;;;;;7.10;3.23;;;;;;;13.82;95.50;100130.31;5044551;28;20209;-77
2021/08/26 02:45:10;;;;;;;10.47;4.50;;;;;;;13.85;95.52;100130.16;5048697;28;20237;-76
2021/08/26 02:47:36;;;;;;;9.60;3.87;;;;;;;13.88;94.93;100145.81;5049591;28;20220;-77
2021/08/26 02:50:03;;;;;;;8.10;3.70;;;;;;;13.94;94.60;100156.06;5047798;28;20911;-78
2021/08/26 02:52:31;;;;;;;10.40;4.33;;;;;;;13.90;94.91;100160.56;5047517;28;20206;-77
2021/08/26 02:54:57;;;;;;;9.73;3.43;;;;;;;13.82;94.93;100156.53;5046698;28;20208;-77
2021/08/26 02:57:24;;;;;;;9.47;4.07;;;;;;;13.81;95.03;100146.94;5048900;28;20207;-77
2021/08/26 02:59:50;;;;;;;10.23;4.10;;;;;;;13.78;95.38;100142.66;5047621;28;20481;-77
2021/08/26 03:02:16;;;;;;;13.17;3.87;;;;;;;13.76;94.83;100138.41;5047286;28;20207;-77
2021/08/26 03:04:42;;;;;;;13.70;3.83;;;;;;;13.80;95.03;100143.47;5048629;28;20237;-77
2021/08/26 03:07:09;;;;;;;13.20;4.63;;;;;;;13.94;95.07;100157.84;5047127;28;20232;-78
2021/08/26 03:09:36;;;;;;;12.60;4.40;;;;;;;13.94;94.49;100181.47;5049010;28;20209;-77
2021/08/26 03:12:04;;;;;;;10.43;3.97;;;;;;;13.97;93.94;100181.34;5048476;28;20446;-78
2021/08/26 03:14:31;;;;;;;12.87;4.60;;;;;;;13.83;94.52;100164.31;5049702;28;20248;-79
2021/08/26 03:16:57;;;;;;;10.03;4.40;;;;;;;13.84;94.91;100165.22;5049303;28;20203;-77
2021/08/26 03:19:23;;;;;;;8.17;4.47;;;;;;;13.82;94.94;100160.00;5050149;28;20782;-78
2021/08/26 03:21:50;;;;;;;10.93;3.83;;;;;;;13.74;95.36;100141.06;5049253;28;20213;-77
2021/08/26 03:24:16;;;;;;;9.87;3.67;;;;;;;13.69;95.55;100129.88;5047850;28;20681;-77
2021/08/26 03:26:44;;;;;;;12.07;4.23;;;;;;;13.75;95.54;100115.69;5048443;28;20257;-77
2021/08/26 03:29:10;;;;;;;13.87;4.63;;;;;;;13.72;95.73;100128.94;5049309;28;20269;-78
2021/08/26 03:31:37;;;;;;;11.90;4.00;;;;;;;13.70;95.77;100121.13;5048748;28;20227;-78
2021/08/26 03:34:03;;;;;;;8.87;4.43;;;;;;;13.64;95.73;100111.72;5049307;28;20679;-78
2021/08/26 03:36:30;;;;;;;20.60;4.70;;;;;;;13.56;96.43;100098.03;5049100;28;20205;-78
2021/08/26 03:38:56;;;;;;;9.80;4.47;;;;;;;13.66;95.59;100115.13;5049060;28;20205;-77
2021/08/26 03:41:23;;;;;;;15.43;5.23;;;;;;;13.66;95.64;100125.63;5047814;28;20261;-77
2021/08/26 03:43:51;;;;;;;13.13;4.63;;;;;;;13.75;95.23;100140.16;5048057;28;20273;-79
2021/08/26 03:46:19;;;;;;;8.17;4.87;;;;;;;13.76;94.54;100162.88;5049185;28;20231;-77
2021/08/26 03:48:45;;;;;;;9.03;4.90;;;;;;;13.76;94.48;100169.88;5049101;28;20207;-78
2021/08/26 03:51:12;;;;;;;10.53;4.80;;;;;;;13.63;95.06;100154.56;5047186;28;20237;-77
2021/08/26 03:53:38;;;;;;;14.57;4.80;;;;;;;13.61;95.86;100130.16;5047284;28;20263;-78
2021/08/26 03:56:06;;;;;;;9.47;4.43;;;;;;;13.66;95.42;100130.00;5047965;28;20629;-77
2021/08/26 03:58:33;;;;;;;7.77;4.00;;;;;;;13.59;95.90;100113.63;5048167;28;20222;-77
2021/08/26 04:01:02;;;;;;;9.73;4.33;;;;;;;13.62;95.72;100116.16;5048827;28;20227;-78
2021/08/26 04:03:29;;;;;;;12.30;4.50;;;;;;;13.57;96.25;100117.22;5048034;28;20212;-78
2021/08/26 04:05:55;;;;;;;7.53;4.13;;;;;;;13.62;95.68;100116.16;5047926;28;20224;-78
2021/08/26 04:08:21;;;;;;;11.03;4.80;;;;;;;13.50;96.04;100101.72;5048559;28;20211;-77
2021/08/26 04:10:48;;;;;;;9.10;4.23;;;;;;;13.49;96.34;100088.66;5048293;28;20227;-77
2021/08/26 04:13:15;;;;;;;11.60;4.53;;;;;;;13.35;96.39;100081.28;5046153;28;20237;-78
2021/08/26 04:15:41;;;;;;;17.90;4.90;;;;;;;13.25;96.85;100072.88;5047296;28;20208;-77
2021/08/26 04:18:09;;;;;;;13.87;4.53;;;;;;;13.25;97.13;100058.91;5047897;28;20207;-77
2021/08/26 04:20:36;;;;;;;11.13;4.50;;;;;;;13.15;97.46;100058.38;5046463;28;20230;-78
2021/08/26 04:23:05;;;;;;;18.03;4.83;;;;;;;13.07;97.86;100045.56;5047911;28;20681;-78
2021/08/26 04:25:31;;;;;;;11.43;4.40;;;;;;;13.08;97.85;100044.66;5047084;28;20211;-76
2021/08/26 04:27:57;;;;;;;14.47;4.50;;;;;;;13.03;98.17;100028.25;5047632;28;20204;-78
2021/08/26 04:30:24;;;;;;;12.67;4.73;;;;;;;12.97;98.59;100017.97;5047462;28;20230;-78
2021/08/26 04:32:50;;;;;;;8.30;4.30;;;;;;;12.91;98.67;99998.09;5045770;28;20654;-77
2021/08/26 04:35:18;;;;;;;9.00;3.97;;;;;;;12.87;99.49;99987.78;5048593;28;20635;-79
2021/08/26 04:37:44;;;;;;;9.17;4.03;;;;;;;12.80;99.22;99981.88;5047961;28;20210;-78
2021/08/26 04:40:11;;;;;;;11.87;4.37;;;;;;;12.76;99.85;99972.44;5047668;28;20235;-77
2021/08/26 04:42:37;;;;;;;17.63;4.00;;;;;;;12.75;100.00;99970.75;5046620;28;20212;-78
2021/08/26 04:45:04;;;;;;;13.60;4.97;;;;;;;12.73;100.00;99963.84;5046728;28;20273;-78
2021/08/26 04:47:31;;;;;;;11.20;4.33;;;;;;;12.70;100.00;99955.19;5046648;28;20587;-76
2021/08/26 04:49:57;;;;;;;12.87;4.17;;;;;;;12.78;100.00;99961.91;5047395;28;20281;-77
2021/08/26 04:52:25;;;;;;;14.97;5.00;;;;;;;12.77;99.96;99961.06;5047016;28;20238;-77
2021/08/26 04:54:51;;;;;;;12.23;4.30;;;;;;;12.84;100.00;99974.78;5046578;28;20204;-78
2021/08/26 04:57:17;;;;;;;12.60;4.67;;;;;;;12.80;99.84;99976.66;5046604;28;20257;-77
2021/08/26 04:59:44;;;;;;;13.33;5.27;;;;;;;12.76;99.68;99982.06;5047288;28;20262;-78
2021/08/26 05:02:10;;;;;;;9.77;3.63;;;;;;;12.83;99.78;99988.81;5047107;28;20212;-78
2021/08/26 05:04:36;;;;;;;16.43;5.17;;;;;;;12.89;100.00;99994.66;5047371;28;20208;-77
2021/08/26 05:07:03;;;;;;;21.77;4.70;;;;;;;12.94;99.63;100002.34;5046529;28;20253;-78
2021/08/26 05:09:31;;;;;;;12.07;4.40;;;;;;;12.94;99.73;100010.22;5046878;28;20249;-77
2021/08/26 05:12:00;;;;;;;17.43;4.13;;;;;;;12.97;99.49;100004.03;5046425;28;21227;-77
2021/08/26 05:14:27;;;;;;;13.07;3.97;;;;;;;12.98;99.52;100016.22;5047477;28;20327;-77
2021/08/26 05:16:56;;;;;;;19.23;5.17;;;;;;;13.05;99.24;100025.56;5047980;28;20206;-78
2021/08/26 05:19:23;;;;;;;16.83;4.83;;;;;;;13.10;99.39;100028.88;5047537;28;20212;-77
2021/08/26 05:21:49;;;;;;;11.23;4.63;;;;;;;13.15;99.30;100033.97;5045783;28;20201;-78
2021/08/26 05:24:15;;;;;;;14.20;5.03;;;;;;;13.16;99.16;100041.78;5046598;28;20227;-77
2021/08/26 05:26:44;;;;;;;22.97;5.33;;;;;;;13.19;99.33;100038.19;5047652;28;20255;-78
2021/08/26 05:29:10;;;;;;;11.07;4.77;;;;;;;13.24;99.16;100051.94;5047120;28;20230;-77
2021/08/26 05:31:37;;;;;;;10.97;4.10;;;;;;;13.23;98.63;100063.38;5047707;28;20285;-77
2021/08/26 05:34:03;;;;;;;9.63;4.27;;;;;;;13.30;98.33;100076.22;5048448;28;20254;-78
2021/08/26 05:36:30;;;;;;;25.43;5.37;;;;;;;13.32;98.08;100073.56;5048814;28;20231;-78
2021/08/26 05:38:56;;;;;;;14.47;5.00;;;;;;;13.35;98.05;100083.91;5048551;28;20205;-78
2021/08/26 05:41:22;;;;;;;12.10;4.13;;;;;;;13.33;98.58;100082.28;5047183;28;20228;-79
2021/08/26 05:43:50;;;;;;;16.33;4.67;;;;;;;13.34;98.57;100078.72;5046088;28;20287;-79
2021/08/26 05:46:17;;;;;;;15.53;4.43;;;;;;;13.34;98.07;100076.09;5047217;28;20296;-79
2021/08/26 05:48:43;;;;;;;15.97;4.90;;;;;;;13.39;98.25;100077.66;5047421;28;20211;-78
2021/08/26 05:51:09;;;;;;;12.23;4.30;;;;;;;13.43;98.00;100081.03;5046682;28;20231;-78
2021/08/26 05:53:36;;;;;;;14.17;4.30;;;;;;;13.48;97.46;100090.44;5046112;28;20570;-78
2021/08/26 05:56:02;;;;;;;14.03;5.50;;;;;;;13.53;97.41;100110.38;5046947;28;20682;-78
2021/08/26 05:58:28;;;;;;;14.80;5.30;;;;;;;13.59;97.01;100124.13;5046632;28;20638;-78
2021/08/26 06:00:56;;;;;;;15.47;4.27;;;;;;;13.63;97.17;100125.72;5047276;28;20224;-78
2021/08/26 06:03:22;;;;;;;13.90;4.30;;;;;;;13.64;96.64;100134.47;5045406;28;20266;-77
2021/08/26 06:05:49;;;;;;;12.70;5.10;;;;;;;13.69;96.28;100145.63;5047062;28;20256;-79
2021/08/26 06:08:15;;;;;;;13.70;4.77;;;;;;;13.73;96.53;100136.72;5046810;28;20271;-78
2021/08/26 06:10:42;;;;;;;11.80;4.60;;;;;;;13.80;96.33;100151.34;5047223;28;20227;-77
2021/08/26 06:13:08;;;;;;;13.60;4.13;;;;;;;13.87;95.90;100158.09;5047262;28;20212;-79
2021/08/26 06:15:35;;;;;;;10.67;4.83;;;;;;;13.83;95.48;100176.59;5045716;28;20211;-78
2021/08/26 06:18:02;;;;;;;11.80;4.40;;;;;;;13.85;96.00;100166.91;5048700;28;20208;-78
2021/08/26 06:20:29;;;;;;;15.73;4.97;;;;;;;13.89;95.65;100163.25;5050504;28;20249;-78
2021/08/26 06:22:55;;;;;;;10.53;4.53;;;;;;;13.92;96.02;100162.31;5049734;28;20253;-79
2021/08/26 06:25:22;;;;;;;23.43;7.10;;;;;;;14.04;95.59;100159.22;5049278;28;20261;-78
2021/08/26 06:27:48;;;;;;;24.27;5.70;;;;;;;14.10;95.41;100161.59;5052230;28;20229;-79
2021/08/26 06:30:14;;;;;;;16.80;5.20;;;;;;;14.20;95.41;100160.34;5053480;28;20272;-78
2021/08/26 06:32:41;;;;;;;15.37;5.30;;;;;;;14.24;94.61;100175.06;5052248;28;20690;-80
2021/08/26 06:35:11;;;;;;;10.53;4.57;;;;;;;14.27;94.16;100182.81;5053640;28;20208;-82
2021/08/26 06:37:37;;;;;;;12.97;5.57;;;;;;;14.32;94.23;100181.78;5051859;28;20208;-79
2021/08/26 06:40:05;;;;;;;11.90;4.33;;;;;;;14.41;93.81;100191.91;5050827;28;20234;-80
2021/08/26 06:42:31;;;;;;;13.43;5.20;;;;;;;14.54;93.66;100221.19;5046615;28;20787;-79
2021/08/26 06:44:58;;;;;;;15.73;5.43;;;;;;;14.55;93.10;100230.78;5049384;28;20246;-81
2021/08/26 06:47:24;;;;;;;16.60;5.73;;;;;;;14.52;92.98;100236.16;5050839;28;20231;-80
2021/08/26 06:49:50;;;;;;;11.80;5.47;;;;;;;14.53;92.92;100228.22;5050770;28;20227;-78
2021/08/26 06:52:18;;;;;;;10.00;4.97;;;;;;;14.69;93.05;100223.25;5048562;28;20625;-80
2021/08/26 06:54:45;;;;;;;22.77;5.27;;;;;;;14.75;92.40;100256.34;5049515;28;20204;-79
2021/08/26 06:57:11;;;;;;;13.60;5.87;;;;;;;14.81;92.30;100272.69;5049368;28;20226;-83
2021/08/26 06:59:37;;;;;;;12.20;5.50;;;;;;;14.68;91.47;100287.22;5047677;28;20208;-80
2021/08/26 07:02:04;;;;;;;13.33;5.87;;;;;;;14.68;92.06;100274.94;5047888;28;20274;-80
2021/08/26 07:04:30;;;;;;;16.73;6.17;;;;;;;14.70;91.96;100288.88;5048033;28;20684;-80
2021/08/26 07:06:57;;;;;;;12.70;5.30;;;;;;;14.72;91.86;100294.06;5048636;28;20257;-79
2021/08/26 07:09:25;;;;;;;13.37;5.53;;;;;;;14.62;91.84;100279.56;5046580;28;20239;-77
2021/08/26 07:11:51;;;;;;;18.60;5.83;;;;;;;14.75;92.31;100267.69;5045416;28;20209;-81
2021/08/26 07:14:18;;;;;;;19.23;6.63;;;;;;;14.82;91.70;100298.03;5048439;28;20564;-79
2021/08/26 07:16:44;;;;;;;16.83;6.57;;;;;;;14.78;91.98;100290.34;5046522;28;20749;-81
2021/08/26 07:19:10;;;;;;;17.67;6.80;;;;;;;14.74;91.86;100302.75;5047105;28;20208;-80
2021/08/26 07:21:37;;;;;;;21.80;7.03;;;;;;;14.67;91.96;100283.75;5045166;28;20726;-79
2021/08/26 07:24:04;;;;;;;15.93;5.97;;;;;;;14.75;92.49;100264.22;5046361;28;20206;-78
2021/08/26 07:26:31;;;;;;;16.03;6.77;;;;;;;14.74;92.12;100262.47;5046391;28;20253;-77
2021/08/26 07:28:58;;;;;;;14.00;6.03;;;;;;;14.76;92.11;100269.38;5045059;28;20545;-77
2021/08/26 07:31:24;;;;;;;18.03;6.73;;;;;;;14.86;91.66;100286.50;5044010;28;20224;-81
2021/08/26 07:33:50;;;;;;;23.60;7.00;;;;;;;14.91;91.45;100290.75;5042842;28;20273;-79
2021/08/26 07:36:17;;;;;;;19.43;7.20;;;;;;;14.94;91.33;100299.34;5044363;28;21291;-78
2021/08/26 07:38:43;;;;;;;14.27;7.00;;;;;;;15.02;91.51;100299.88;5044731;28;20209;-79
2021/08/26 07:41:09;;;;;;;14.00;6.23;;;;;;;15.07;91.22;100310.25;5045027;28;20232;-79
2021/08/26 07:43:37;;;;;;;15.47;6.43;;;;;;;15.03;90.89;100312.13;5045823;28;20215;-80
2021/08/26 07:46:04;;;;;;;17.50;6.50;;;;;;;15.07;90.67;100303.22;5046433;28;20217;-81
2021/08/26 07:48:31;;;;;;;19.03;6.37;;;;;;;15.04;90.57;100305.97;5046006;28;20228;-81
2021/08/26 07:51:02;;;;;;;17.40;7.17;;;;;;;15.06;90.22;100325.16;5045434;28;20787;-83
2021/08/26 07:53:29;;;;;;;12.00;7.03;;;;;;;15.01;90.10;100306.09;5044267;28;20683;-82
2021/08/26 07:55:55;;;;;;;22.60;6.97;;;;;;;15.15;90.01;100320.47;5044990;28;20295;-79
2021/08/26 07:58:21;;;;;;;15.57;6.43;;;;;;;15.21;90.25;100301.81;5045313;28;20253;-80
2021/08/26 08:00:49;;;;;;;23.50;7.43;;;;;;;15.30;89.16;100335.59;5043089;28;20232;-78
2021/08/26 08:03:15;;;;;;;19.23;6.63;;;;;;;15.42;88.91;100336.88;5044873;28;20251;-78
2021/08/26 08:05:42;;;;;;;17.33;6.20;;;;;;;15.39;89.00;100331.75;5045228;28;20207;-78
2021/08/26 08:08:08;;;;;;;12.07;6.40;;;;;;;15.38;88.96;100319.50;5045137;28;20313;-80
2021/08/26 08:10:34;;;;;;;13.63;6.40;;;;;;;15.43;88.91;100321.03;5046387;28;20505;-80
2021/08/26 08:13:01;;;;;;;18.80;6.73;;;;;;;15.48;89.33;100308.56;5042772;28;20242;-81
2021/08/26 08:15:27;;;;;;;14.27;6.50;;;;;;;15.55;88.82;100326.72;5043180;28;20298;-82
2021/08/26 08:17:55;;;;;;;14.10;6.07;;;;;;;15.54;88.85;100333.78;5042898;28;20262;-79
2021/08/26 08:20:21;;;;;;;14.47;6.47;;;;;;;15.57;88.00;100356.47;5043302;28;20253;-81
2021/08/26 08:22:48;;;;;;;15.03;7.00;;;;;;;15.58;87.81;100371.31;5042478;28;20271;-79
2021/08/26 08:25:15;;;;;;;16.67;6.30;;;;;;;15.59;87.61;100381.78;5042671;28;20209;-80
2021/08/26 08:27:41;;;;;;;11.87;5.87;;;;;;;15.62;87.50;100386.09;5043279;28;20266;-79
2021/08/26 08:30:09;;;;;;;20.10;6.00;;;;;;;15.75;88.24;100360.13;5043636;28;20272;-82
2021/08/26 08:32:35;;;;;;;15.87;6.43;;;;;;;15.78;87.32;100395.09;5043197;28;20283;-81
2021/08/26 08:35:03;;;;;;;15.70;6.43;;;;;;;15.76;86.41;100431.13;5043443;28;20205;-81
2021/08/26 08:37:30;;;;;;;14.13;6.33;;;;;;;15.82;86.75;100430.88;5043050;28;20207;-82
2021/08/26 08:39:56;;;;;;;13.27;6.70;;;;;;;15.82;86.81;100425.63;5042765;28;20603;-80
2021/08/26 08:42:24;;;;;;;13.77;6.27;;;;;;;15.88;86.76;100435.06;5043759;28;20282;-80
2021/08/26 08:44:50;;;;;;;19.60;6.70;;;;;;;15.97;86.85;100421.47;5044755;28;20289;-76
2021/08/26 08:47:18;;;;;;;12.97;6.67;;;;;;;15.98;86.49;100425.00;5044677;28;20228;-79
2021/08/26 08:49:46;;;;;;;15.67;6.87;;;;;;;15.99;85.61;100448.59;5044953;28;20421;-80
2021/08/26 08:52:15;;;;;;;12.37;6.83;;;;;;;15.98;85.85;100443.44;5043447;28;20213;-81
2021/08/26 08:54:41;;;;;;;16.00;6.83;;;;;;;16.19;86.63;100418.81;5046019;28;20293;-81
2021/08/26 08:57:07;;;;;;;12.63;6.93;;;;;;;16.27;85.07;100465.91;5049528;28;20765;-77
2021/08/26 08:59:35;;;;;;;16.00;7.60;;;;;;;16.21;84.77;100480.19;5047987;28;20259;-79
2021/08/26 09:02:01;;;;;;;18.13;6.47;;;;;;;16.35;85.16;100489.28;5045720;28;20205;-80
2021/08/26 09:04:28;;;;;;;16.27;6.53;;;;;;;16.24;84.29;100516.09;5043977;28;20849;-81
2021/08/26 09:06:54;;;;;;;14.33;6.27;;;;;;;16.12;84.28;100496.38;5046297;28;20217;-79
2021/08/26 09:09:22;;;;;;;17.53;6.27;;;;;;;16.19;84.05;100516.25;5044076;28;20255;-79
2021/08/26 09:11:49;;;;;;;17.63;6.23;;;;;;;16.35;84.71;100490.16;5044226;28;20204;-79
2021/08/26 09:14:16;;;;;;;12.10;6.03;;;;;;;16.28;84.25;100510.63;5045049;28;20208;-79
2021/08/26 09:16:46;;;;;;;13.63;5.83;;;;;;;16.25;83.71;100525.69;5044121;28;20288;-78
2021/08/26 09:19:27;;;;;;;15.83;6.53;;;;;;;16.18;84.37;100496.13;5044939;28;20237;-80
2021/08/26 09:21:54;;;;;;;14.27;6.67;;;;;;;16.03;85.36;100452.81;5049802;28;20206;-80
2021/08/26 09:24:22;;;;;;;17.47;6.53;;;;;;;16.08;86.66;100402.63;5048202;28;20570;-81
2021/08/26 09:26:52;;;;;;;17.10;6.10;;;;;;;16.16;86.06;100429.47;5050383;28;20627;-80
2021/08/26 09:29:19;;;;;;;9.53;6.40;;;;;;;16.17;86.39;100406.63;5050263;28;20215;-80
2021/08/26 09:31:46;;;;;;;10.03;6.33;;;;;;;16.23;85.85;100425.69;5050347;28;20241;-80
2021/08/26 09:34:14;;;;;;;11.30;6.63;;;;;;;16.34;84.46;100475.25;5048924;28;20201;-79
2021/08/26 09:36:53;;;;;;;14.07;6.53;;;;;;;16.53;83.43;100506.97;5049843;28;20458;-79
2021/08/26 09:39:23;;;;;;;20.93;6.93;;;;;;;16.66;82.87;100537.13;5053590;28;20223;-80
2021/08/26 09:41:52;;;;;;;9.97;6.67;;;;;;;16.85;82.22;100560.97;5048877;28;20208;-79
2021/08/26 09:44:20;;;;;;;9.97;5.87;;;;;;;16.92;81.21;100590.53;5048219;28;20212;-78
2021/08/26 09:46:49;;;;;;;13.63;5.40;;;;;;;16.86;80.41;100625.09;5045339;28;20212;-79
2021/08/26 09:49:18;;;;;;;11.03;5.53;;;;;;;16.91;79.91;100623.13;5043818;28;20283;-79
2021/08/26 09:51:45;;;;;;;9.33;6.30;;;;;;;16.90;79.68;100647.78;5045722;28;20225;-83
2021/08/26 09:54:31;;;;;;;15.10;6.30;;;;;;;16.90;80.15;100613.50;5046016;28;20362;-82
2021/08/26 09:56:58;;;;;;;12.63;6.20;;;;;;;16.96;79.76;100636.97;5048764;28;20206;-78
2021/08/26 09:59:44;;;;;;;11.10;5.73;;;;;;;17.16;78.86;100651.09;5046477;28;20255;-80
2021/08/26 10:02:11;;;;;;;9.47;5.50;;;;;;;17.25;78.19;100685.00;5044688;28;20668;-79
2021/08/26 10:04:38;;;;;;;14.23;6.73;;;;;;;17.35;78.04;100685.47;5045922;28;20275;-82
2021/08/26 10:07:05;;;;;;;7.45;5.10;;;;;;;17.30;77.14;100708.53;4349929;28;10021671;-79
2021/08/26 10:09:34;;;;;;;10.37;5.40;;;;;;;17.25;76.72;100724.56;5047720;28;20570;-81
2021/08/26 10:12:00;;;;;;;9.93;5.73;;;;;;;17.27;76.19;100734.13;5044234;28;20255;-79
2021/08/26 10:14:27;;;;;;;9.80;6.00;;;;;;;17.44;76.32;100724.63;5043715;28;20268;-79
2021/08/26 10:16:54;;;;;;;7.50;5.47;;;;;;;17.41;74.89;100769.63;5045950;28;20279;-81
2021/08/26 10:19:21;;;;;;;12.07;5.40;;;;;;;17.38;73.64;100833.97;5045173;28;20288;-79
2021/08/26 10:21:48;;;;;;;7.60;4.70;;;;;;;17.30;74.70;100787.69;5047030;28;20229;-79
2021/08/26 10:24:15;;;;;;;8.03;4.80;;;;;;;17.17;75.01;100771.53;5045852;28;20793;-81
2021/08/26 10:26:46;;;;;;;9.53;5.20;;;;;;;17.13;75.69;100735.66;5043927;28;20205;-80
2021/08/26 10:29:15;;;;;;;7.17;4.70;;;;;;;17.15;74.54;100768.09;5045735;28;20229;-82
2021/08/26 10:31:51;;;;;;;6.80;4.33;;;;;;;17.12;74.19;100810.41;5044756;28;20358;-79
2021/08/26 10:34:23;;;;;;;9.97;5.03;;;;;;;17.23;73.99;100789.72;5042799;28;20282;-80
2021/08/26 10:37:18;;;;;;;12.27;5.10;;;;;;;17.22;74.66;100786.25;5042733;28;20297;-80
2021/08/26 10:39:45;;;;;;;10.13;4.97;;;;;;;17.29;74.62;100780.72;5043085;28;20225;-80
2021/08/26 10:45:21;;;;;;;13.73;7.03;;;;;;;16.85;81.85;100497.69;5057318;27;20595;-80
2021/08/26 10:48:16;;;;;;;8.47;5.73;;;;;;;16.60;81.33;100497.84;5041384;28;20872;-80
2021/08/26 10:50:46;;;;;;;8.43;4.53;;;;;;;16.44;80.45;100555.63;5048882;28;20229;-79
2021/08/26 10:53:16;;;;;;;8.47;5.60;;;;;;;16.40;83.17;100460.97;5045779;28;20313;-80
2021/08/26 10:55:46;;;;;;;10.00;5.67;;;;;;;16.17;85.73;100365.34;5049277;28;20748;-80
2021/08/26 10:58:35;;;;;;;8.97;3.97;;;;;;;15.91;84.36;100398.06;5051557;28;20212;-80
2021/08/26 11:01:04;;;;;;;6.63;4.30;;;;;;;15.63;85.34;100379.88;5051265;28;20890;-79
2021/08/26 11:03:50;;;;;;;12.10;5.30;;;;;;;15.39;87.52;100253.69;5047148;28;20655;-80
2021/08/26 11:06:37;;;;;;;6.93;4.37;;;;;;;15.27;88.08;100228.78;5048635;28;20211;-79
2021/08/26 11:09:30;;;;;;;6.33;4.00;;;;;;;15.22;86.15;100299.13;5047230;28;20212;-80
2021/08/26 11:12:03;;;;;;;5.63;3.73;;;;;;;15.14;87.89;100274.03;5044975;28;20294;-82
2021/08/26 11:14:29;;;;;;;6.27;4.17;;;;;;;15.19;87.59;100265.06;5042931;28;20222;-79
2021/08/26 11:16:59;;;;;;;7.93;4.30;;;;;;;15.29;88.12;100258.47;5049861;28;20308;-80
2021/08/26 11:19:37;;;;;;;7.43;3.10;;;;;;;15.39;85.83;100334.38;5047665;28;20633;-81
2021/08/26 11:22:06;;;;;;;3.53;2.30;;;;;;;15.29;83.62;100444.34;5042369;28;20241;-82
2021/08/26 11:24:54;;;;;;;3.33;2.37;;;;;;;15.09;82.95;100467.00;5044015;28;20226;-80
2021/08/26 11:27:29;;;;;;;2.83;1.80;;;;;;;15.07;82.68;100466.19;5046126;28;20243;-79
2021/08/26 11:29:56;;;;;;;4.67;1.90;;;;;;;15.02;83.37;100443.63;5048124;28;20239;-79
2021/08/26 11:32:25;;;;;;;3.00;2.00;;;;;;;15.03;85.24;100374.38;5047726;28;20385;-81